createdAt,value
2022-08-22T00:01:28.109Z,56.00
2022-08-22T00:02:53.534Z,6.60
2022-08-22T00:02:53.748Z,6.12
2022-08-22T00:03:12.821Z,6.03
2022-08-22T00:04:28.756Z,55.80
2022-08-22T00:07:39.170Z,53.90
2022-08-22T00:10:46.737Z,53.40
2022-08-22T00:13:26.164Z,55.20
2022-08-22T00:16:09.617Z,54.70
2022-08-22T00:21:27.672Z,54.03
2022-08-22T00:24:37.215Z,55.50
2022-08-22T00:27:18.075Z,49.55
2022-08-22T00:29:54.723Z,53.83
2022-08-22T00:32:43.038Z,54.60
2022-08-22T00:35:26.989Z,53.42
2022-08-22T00:38:18.769Z,52.45
2022-08-22T00:41:31.635Z,52.08
2022-08-22T00:44:28.201Z,51.53
2022-08-22T00:47:18.637Z,55.55
2022-08-22T00:50:04.535Z,53.92
2022-08-22T00:52:59.912Z,52.40
2022-08-22T00:56:03.476Z,57.97
2022-08-22T00:59:11.996Z,53.90
2022-08-22T01:02:15.140Z,49.25
2022-08-22T01:04:58.313Z,54.17
2022-08-22T01:07:49.237Z,57.75
2022-08-22T01:10:28.721Z,55.75
2022-08-22T01:13:28.499Z,59.40
2022-08-22T01:16:24.683Z,57.53
2022-08-22T01:19:07.078Z,59.38
2022-08-22T01:21:59.122Z,59.17
2022-08-22T01:24:36.016Z,57.50
2022-08-22T01:27:35.873Z,50.08
2022-08-22T01:30:39.466Z,58.17
2022-08-22T01:33:35.294Z,58.90
2022-08-22T01:36:18.450Z,60.65
2022-08-22T01:39:14.324Z,63.60
2022-08-22T01:42:07.127Z,54.72
2022-08-22T01:44:56.369Z,56.73
2022-08-22T01:47:37.514Z,58.78
2022-08-22T01:50:26.024Z,60.22
2022-08-22T01:53:06.089Z,67.00
2022-08-22T01:56:25.873Z,67.40
2022-08-22T01:59:02.879Z,57.40
2022-08-22T02:01:42.603Z,61.63
2022-08-22T02:04:16.421Z,64.90
2022-08-22T02:07:09.260Z,66.80
2022-08-22T02:10:05.365Z,68.90
2022-08-22T02:12:45.338Z,71.72
2022-08-22T02:15:23.076Z,69.20
2022-08-22T02:18:02.936Z,68.40
2022-08-22T02:20:36.891Z,68.95
2022-08-22T02:23:04.632Z,68.18
2022-08-22T02:25:46.813Z,68.60
2022-08-22T02:28:39.455Z,62.55
2022-08-22T02:31:27.209Z,60.65
2022-08-22T02:33:58.679Z,58.63
2022-08-22T02:36:50.729Z,71.78
2022-08-22T02:39:50.497Z,70.37
2022-08-22T02:42:23.323Z,71.65
2022-08-22T02:45:04.077Z,67.82
2022-08-22T02:48:13.484Z,73.32
2022-08-22T02:51:02.023Z,71.72
2022-08-22T02:53:46.468Z,74.10
2022-08-22T02:56:22.305Z,74.57
2022-08-22T02:59:12.403Z,77.40
2022-08-22T03:01:44.991Z,79.90
2022-08-22T03:07:20.722Z,77.57
2022-08-22T03:10:10.992Z,87.82
2022-08-22T03:13:11.535Z,80.32
2022-08-22T03:15:49.370Z,83.80
2022-08-22T03:18:17.056Z,92.03
2022-08-22T03:20:54.270Z,95.38
2022-08-22T03:24:12.202Z,93.72
2022-08-22T03:26:52.584Z,103.97
2022-08-22T03:29:29.357Z,99.65
2022-08-22T03:32:09.419Z,85.30
2022-08-22T03:34:37.942Z,101.18
2022-08-22T03:37:24.530Z,89.87
2022-08-22T03:39:55.374Z,102.90
2022-08-22T03:42:41.519Z,101.90
2022-08-22T03:45:21.190Z,95.53
2022-08-22T03:48:12.295Z,106.20
2022-08-22T03:51:02.085Z,103.60
2022-08-22T03:54:07.681Z,113.60
2022-08-22T03:57:07.672Z,77.50
2022-08-22T04:00:00.307Z,107.70
2022-08-22T04:02:49.149Z,103.38
2022-08-22T04:05:28.848Z,126.47
2022-08-22T04:08:14.571Z,128.95
2022-08-22T04:11:14.698Z,106.63
2022-08-22T04:14:19.349Z,113.40
2022-08-22T04:17:05.650Z,123.50
2022-08-22T04:20:11.035Z,110.22
2022-08-22T04:23:03.796Z,167.55
2022-08-22T04:28:44.092Z,162.88
2022-08-22T04:31:14.558Z,125.53
2022-08-22T04:34:10.146Z,160.60
2022-08-22T04:36:48.534Z,170.43
2022-08-22T04:39:22.212Z,135.75
2022-08-22T04:42:11.135Z,170.90
2022-08-22T04:44:52.807Z,146.02
2022-08-22T04:48:01.849Z,102.97
2022-08-22T04:50:41.249Z,155.15
2022-08-22T04:53:29.698Z,118.62
2022-08-22T04:56:45.491Z,154.85
2022-08-22T04:59:17.363Z,168.85
2022-08-22T05:01:47.228Z,159.00
2022-08-22T05:04:23.436Z,163.57
2022-08-22T05:06:57.102Z,151.30
2022-08-22T05:09:31.012Z,160.68
2022-08-22T05:12:07.593Z,144.37
2022-08-22T05:15:10.404Z,142.85
2022-08-22T05:17:41.989Z,143.68
2022-08-22T05:20:15.833Z,140.30
2022-08-22T05:22:47.949Z,138.02
2022-08-22T05:25:22.204Z,148.50
2022-08-22T05:28:05.571Z,143.35
2022-08-22T05:30:35.299Z,143.18
2022-08-22T05:33:27.613Z,142.93
2022-08-22T05:36:00.532Z,140.60
2022-08-22T05:38:32.423Z,146.43
2022-08-22T05:41:08.289Z,152.80
2022-08-22T05:43:43.663Z,138.32
2022-08-22T05:46:26.963Z,132.93
2022-08-22T05:49:00.176Z,121.37
2022-08-22T05:51:40.129Z,120.55
2022-08-22T05:54:21.961Z,135.88
2022-08-22T05:57:29.202Z,112.72
2022-08-22T06:00:11.797Z,132.48
2022-08-22T06:05:29.563Z,110.12
2022-08-22T06:08:34.785Z,114.40
2022-08-22T06:11:15.206Z,119.35
2022-08-22T06:13:52.290Z,116.72
2022-08-22T06:16:33.561Z,116.05
2022-08-22T06:19:05.090Z,112.43
2022-08-22T06:21:51.094Z,108.40
2022-08-22T06:24:28.044Z,109.12
2022-08-22T06:27:04.320Z,109.68
2022-08-22T06:29:46.124Z,102.30
2022-08-22T06:35:15.840Z,105.22
2022-08-22T06:37:46.634Z,108.78
2022-08-22T06:40:17.699Z,107.12
2022-08-22T06:42:50.763Z,99.87
2022-08-22T06:45:25.658Z,105.63
2022-08-22T06:48:20.409Z,100.18
2022-08-22T06:50:58.885Z,91.35
2022-08-22T06:54:03.897Z,108.53
2022-08-22T06:56:40.066Z,96.50
2022-08-22T06:59:13.065Z,97.05
2022-08-22T07:01:51.092Z,105.57
2022-08-22T07:04:26.289Z,97.40
2022-08-22T07:07:01.037Z,98.05
2022-08-22T07:09:32.493Z,95.18
2022-08-22T07:12:04.959Z,84.62
2022-08-22T07:14:41.894Z,96.85
2022-08-22T07:17:19.140Z,89.05
2022-08-22T07:19:55.778Z,89.87
2022-08-22T07:22:28.935Z,92.22
2022-08-22T07:25:03.347Z,90.43
2022-08-22T07:28:08.080Z,77.65
2022-08-22T07:30:59.191Z,97.18
2022-08-22T07:33:50.044Z,88.00
2022-08-22T07:36:31.794Z,86.93
2022-08-22T07:39:18.457Z,87.50
2022-08-22T07:42:14.223Z,89.20
2022-08-22T07:45:03.457Z,86.85
2022-08-22T07:47:41.328Z,86.80
2022-08-22T07:50:17.465Z,71.25
2022-08-22T07:52:46.443Z,78.22
2022-08-22T07:55:21.046Z,82.03
2022-08-22T07:58:04.177Z,74.72
2022-08-22T08:00:32.995Z,78.20
2022-08-22T08:03:09.152Z,86.37
2022-08-22T08:05:38.778Z,80.45
2022-08-22T08:08:24.809Z,79.22
2022-08-22T08:10:56.581Z,88.30
2022-08-22T08:13:34.451Z,88.43
2022-08-22T08:16:05.238Z,78.10
2022-08-22T08:18:36.265Z,75.25
2022-08-22T08:21:08.724Z,74.28
2022-08-22T08:23:45.465Z,78.37
2022-08-22T08:26:21.867Z,72.40
2022-08-22T08:28:54.667Z,67.18
2022-08-22T08:31:44.637Z,66.32
2022-08-22T08:34:20.354Z,72.10
2022-08-22T08:36:52.030Z,70.68
2022-08-22T08:39:35.134Z,66.82
2022-08-22T08:42:09.217Z,76.35
2022-08-22T08:47:59.903Z,63.33
2022-08-22T08:51:06.640Z,71.47
2022-08-22T08:53:44.790Z,71.57
2022-08-22T08:56:19.875Z,61.00
2022-08-22T08:59:09.906Z,58.92
2022-08-22T09:02:09.035Z,69.15
2022-08-22T09:05:13.019Z,60.22
2022-08-22T09:07:50.436Z,64.55
2022-08-22T09:10:54.132Z,66.80
2022-08-22T09:17:21.140Z,57.25
2022-08-22T09:20:19.458Z,56.67
2022-08-22T09:23:05.203Z,54.72
2022-08-22T09:29:16.470Z,52.58
2022-08-22T09:32:05.776Z,51.63
2022-08-22T09:34:54.922Z,47.40
2022-08-22T09:37:58.656Z,50.45
2022-08-22T09:40:35.424Z,51.92
2022-08-22T09:43:13.210Z,43.13
2022-08-22T09:46:01.925Z,44.83
2022-08-22T09:49:07.140Z,42.30
2022-08-22T09:51:44.418Z,43.45
2022-08-22T09:54:18.852Z,40.90
2022-08-22T09:57:01.478Z,40.40
2022-08-22T09:59:48.111Z,33.85
2022-08-22T10:02:43.378Z,34.85
2022-08-22T10:05:40.402Z,31.37
2022-08-22T10:08:33.362Z,30.77
2022-08-22T10:11:23.855Z,28.17
2022-08-22T10:14:00.870Z,29.45
2022-08-22T10:16:57.815Z,27.00
2022-08-22T10:19:42.088Z,22.27
2022-08-22T10:22:47.733Z,20.83
2022-08-22T10:25:33.791Z,24.70
2022-08-22T10:28:22.359Z,24.65
2022-08-22T10:31:25.193Z,25.20
2022-08-22T10:34:02.182Z,25.33
2022-08-22T10:36:45.544Z,23.05
2022-08-22T10:39:23.831Z,24.63
2022-08-22T10:42:23.616Z,22.25
2022-08-22T10:45:16.504Z,19.15
2022-08-22T10:47:54.652Z,18.62
2022-08-22T10:50:36.939Z,15.48
2022-08-22T10:56:06.702Z,12.50
2022-08-22T10:58:40.916Z,12.60
2022-08-22T11:01:37.808Z,15.15
2022-08-22T11:04:18.853Z,13.00
2022-08-22T11:07:14.772Z,11.50
2022-08-22T11:09:44.477Z,8.65
2022-08-22T11:12:41.721Z,5.40
2022-08-22T11:15:26.242Z,10.45
2022-08-22T11:18:21.248Z,5.50
2022-08-22T11:20:59.727Z,6.12
2022-08-22T11:23:43.024Z,4.95
2022-08-22T11:26:29.913Z,3.53
2022-08-22T11:29:18.804Z,3.30
2022-08-22T11:31:52.213Z,5.32
2022-08-22T11:34:38.612Z,3.60
2022-08-22T11:37:15.440Z,3.35
2022-08-22T11:39:57.652Z,3.85
2022-08-22T11:42:47.439Z,3.62
2022-08-22T11:45:23.954Z,3.00
2022-08-22T11:48:00.748Z,2.92
2022-08-22T11:50:35.304Z,3.22
2022-08-22T11:56:05.787Z,2.80
2022-08-22T11:58:56.683Z,3.28
2022-08-22T12:01:37.107Z,2.60
2022-08-22T12:04:12.715Z,3.37
2022-08-22T12:07:11.190Z,2.70
2022-08-22T12:10:07.132Z,3.17
2022-08-22T12:13:06.399Z,2.85
2022-08-22T12:16:00.859Z,2.62
2022-08-22T12:18:56.500Z,2.50
2022-08-22T12:21:24.501Z,5.55
2022-08-22T12:24:00.904Z,3.33
2022-08-22T12:27:12.577Z,2.00
2022-08-22T12:30:05.284Z,3.05
2022-08-22T12:33:03.436Z,3.47
2022-08-22T12:35:42.494Z,2.78
2022-08-22T12:38:29.427Z,2.80
2022-08-22T12:41:28.529Z,2.72
2022-08-22T12:44:25.455Z,2.67
2022-08-22T12:47:02.828Z,2.60
2022-08-22T12:50:01.341Z,2.62
2022-08-22T12:52:59.033Z,2.35
2022-08-22T12:55:36.679Z,2.30
2022-08-22T12:58:56.089Z,2.50
2022-08-22T13:01:34.075Z,2.40
2022-08-22T13:04:08.238Z,2.37
2022-08-22T13:06:37.976Z,2.30
2022-08-22T13:09:28.915Z,2.70
2022-08-22T13:12:04.998Z,2.37
2022-08-22T13:14:35.125Z,2.20
2022-08-22T13:17:24.320Z,2.50
2022-08-22T13:20:21.267Z,2.62
2022-08-22T13:22:49.603Z,2.47
2022-08-22T13:25:26.587Z,2.45
2022-08-22T13:27:59.462Z,2.30
2022-08-22T13:30:33.930Z,2.30
2022-08-22T13:33:08.934Z,2.28
2022-08-22T13:35:44.785Z,2.20
2022-08-22T13:38:28.373Z,2.45
2022-08-22T13:41:02.344Z,2.75
2022-08-22T13:43:56.270Z,2.87
2022-08-22T13:46:28.676Z,2.60
2022-08-22T13:49:01.119Z,2.20
2022-08-22T13:51:40.388Z,2.28
2022-08-22T13:54:11.965Z,2.33
2022-08-22T13:56:50.629Z,2.42
2022-08-22T13:59:50.974Z,2.25
2022-08-22T14:02:47.925Z,2.00
2022-08-22T14:05:33.541Z,2.05
2022-08-22T14:08:12.666Z,2.60
2022-08-22T14:11:02.105Z,2.30
2022-08-22T14:13:49.653Z,2.47
2022-08-22T14:16:26.095Z,2.05
2022-08-22T14:19:06.124Z,2.40
2022-08-22T14:21:43.457Z,3.50
2022-08-22T14:24:45.750Z,14.87
2022-08-22T14:27:27.289Z,8.50
2022-08-22T14:30:01.665Z,26.87
2022-08-22T14:32:42.388Z,25.12
2022-08-22T14:35:34.691Z,12.20
2022-08-22T14:41:05.766Z,4.85
2022-08-22T14:43:57.235Z,5.05
2022-08-22T14:46:31.936Z,15.88
2022-08-22T14:49:06.169Z,9.75
2022-08-22T14:51:34.034Z,4.80
2022-08-22T14:54:21.394Z,4.50
2022-08-22T14:56:52.432Z,4.60
2022-08-22T14:59:35.964Z,3.25
2022-08-22T15:02:10.569Z,3.50
2022-08-22T15:04:46.213Z,3.28
2022-08-22T15:07:33.856Z,3.70
2022-08-22T15:10:26.910Z,3.22
2022-08-22T15:13:03.274Z,2.97
2022-08-22T15:15:41.210Z,3.00
2022-08-22T15:18:35.336Z,3.12
2022-08-22T15:21:11.298Z,3.12
2022-08-22T15:23:45.189Z,3.15
2022-08-22T15:26:25.084Z,3.22
2022-08-22T15:29:04.322Z,3.60
2022-08-22T15:31:33.041Z,3.75
2022-08-22T15:34:13.634Z,3.40
2022-08-22T15:37:08.320Z,3.50
2022-08-22T15:39:58.510Z,4.00
2022-08-22T15:42:33.453Z,4.07
2022-08-22T15:45:02.672Z,3.87
2022-08-22T15:47:41.914Z,4.05
2022-08-22T15:50:27.680Z,4.55
2022-08-22T15:53:22.520Z,4.10
2022-08-22T15:56:05.627Z,4.32
2022-08-22T15:58:48.964Z,4.32
2022-08-22T16:01:22.385Z,4.30
2022-08-22T16:04:05.413Z,3.53
2022-08-22T16:06:55.233Z,3.62
2022-08-22T16:09:39.588Z,3.33
2022-08-22T16:12:27.093Z,3.85
2022-08-22T16:14:56.037Z,4.40
2022-08-22T16:17:45.504Z,3.40
2022-08-22T16:20:20.070Z,3.30
2022-08-22T16:22:57.000Z,3.33
2022-08-22T16:25:47.716Z,3.33
2022-08-22T16:28:41.380Z,3.30
2022-08-22T16:31:19.197Z,3.67
2022-08-22T16:33:48.201Z,4.10
2022-08-22T16:36:44.360Z,3.72
2022-08-22T16:39:24.074Z,3.78
2022-08-22T16:41:56.655Z,3.55
2022-08-22T16:44:30.406Z,3.60
2022-08-22T16:47:12.127Z,3.95
2022-08-22T16:49:52.163Z,3.50
2022-08-22T16:52:26.352Z,4.07
2022-08-22T16:58:11.084Z,4.62
2022-08-22T17:01:00.275Z,4.18
2022-08-22T17:04:09.804Z,4.70
2022-08-22T17:06:48.152Z,4.70
2022-08-22T17:09:43.453Z,4.72
2022-08-22T17:12:17.067Z,4.95
2022-08-22T17:15:12.523Z,5.03
2022-08-22T17:18:17.742Z,4.93
2022-08-22T17:20:56.422Z,5.55
2022-08-22T17:23:38.936Z,5.93
2022-08-22T17:26:28.538Z,6.00
2022-08-22T17:29:27.299Z,5.72
2022-08-22T17:32:17.063Z,6.62
2022-08-22T17:34:58.841Z,6.28
2022-08-22T17:37:38.067Z,7.32
2022-08-22T17:40:36.675Z,6.70
2022-08-22T17:43:07.882Z,7.03
2022-08-22T17:45:50.742Z,8.52
2022-08-22T17:48:26.156Z,9.07
2022-08-22T17:51:13.591Z,8.57
2022-08-22T17:53:50.923Z,9.25
2022-08-22T17:56:41.338Z,10.95
2022-08-22T17:59:28.243Z,10.95
2022-08-22T18:02:02.451Z,10.85
2022-08-22T18:05:16.756Z,10.82
2022-08-22T18:07:50.618Z,11.55
2022-08-22T18:10:25.336Z,11.32
2022-08-22T18:13:07.359Z,14.80
2022-08-22T18:15:52.646Z,13.65
2022-08-22T18:18:32.283Z,14.95
2022-08-22T18:21:06.463Z,16.05
2022-08-22T18:23:41.742Z,16.48
2022-08-22T18:29:53.595Z,14.68
2022-08-22T18:32:29.669Z,16.95
2022-08-22T18:35:10.657Z,15.77
2022-08-22T18:37:47.045Z,19.52
2022-08-22T18:40:49.687Z,18.30
2022-08-22T18:43:24.296Z,17.73
2022-08-22T18:45:52.079Z,18.40
2022-08-22T18:48:29.884Z,18.50
2022-08-22T18:51:38.267Z,18.85
2022-08-22T18:54:11.462Z,20.70
2022-08-22T18:57:17.454Z,19.45
2022-08-22T18:59:57.697Z,20.02
2022-08-22T19:02:28.551Z,21.60
2022-08-22T19:05:15.272Z,21.83
2022-08-22T19:07:52.286Z,19.92
2022-08-22T19:10:48.006Z,21.85
2022-08-22T19:13:28.899Z,21.35
2022-08-22T19:16:23.046Z,20.65
2022-08-22T19:19:17.411Z,21.20
2022-08-22T19:22:19.699Z,23.00
2022-08-22T19:25:09.186Z,21.73
2022-08-22T19:27:58.316Z,20.35
2022-08-22T19:30:41.732Z,22.45
2022-08-22T19:33:19.949Z,21.77
2022-08-22T19:35:54.847Z,21.92
2022-08-22T19:38:54.270Z,21.20
2022-08-22T19:41:45.670Z,21.35
2022-08-22T19:44:20.044Z,22.05
2022-08-22T19:47:18.304Z,21.60
2022-08-22T19:50:00.748Z,23.00
2022-08-22T19:52:34.305Z,23.40
2022-08-22T19:55:19.124Z,22.48
2022-08-22T19:57:58.858Z,23.27
2022-08-22T20:00:53.634Z,22.58
2022-08-22T20:03:37.748Z,24.30
2022-08-22T20:06:43.569Z,23.55
2022-08-22T20:09:28.990Z,23.87
2022-08-22T20:12:22.765Z,23.40
2022-08-22T20:14:51.570Z,23.33
2022-08-22T20:17:25.293Z,23.85
2022-08-22T20:20:19.239Z,24.63
2022-08-22T20:23:06.118Z,23.77
2022-08-22T20:25:49.627Z,23.15
2022-08-22T20:28:34.872Z,24.27
2022-08-22T20:31:07.875Z,24.50
2022-08-22T20:33:40.507Z,24.65
2022-08-22T20:36:27.615Z,24.85
2022-08-22T20:39:15.447Z,23.77
2022-08-22T20:41:50.144Z,24.10
2022-08-22T20:44:28.667Z,24.55
2022-08-22T20:47:06.022Z,24.20
2022-08-22T20:49:46.790Z,24.12
2022-08-22T20:52:32.653Z,25.95
2022-08-22T20:55:12.522Z,25.35
2022-08-22T20:57:55.842Z,24.05
2022-08-22T21:00:44.796Z,24.98
2022-08-22T21:03:25.541Z,23.48
2022-08-22T21:05:53.297Z,23.48
2022-08-22T21:08:26.368Z,24.45
2022-08-22T21:13:49.554Z,24.42
2022-08-22T21:16:31.689Z,24.23
2022-08-22T21:19:04.778Z,24.15
2022-08-22T21:21:34.773Z,24.60
2022-08-22T21:24:06.641Z,24.20
2022-08-22T21:26:46.901Z,22.75
2022-08-22T21:29:14.991Z,22.17
2022-08-22T21:31:59.066Z,23.35
2022-08-22T21:34:41.734Z,22.50
2022-08-22T21:37:22.880Z,20.75
2022-08-22T21:39:59.580Z,22.00
2022-08-22T21:42:35.701Z,22.00
2022-08-22T21:45:08.590Z,23.20
2022-08-22T21:47:40.251Z,22.45
2022-08-22T21:50:25.028Z,22.55
2022-08-22T21:52:55.846Z,21.50
2022-08-22T21:55:36.239Z,20.00
2022-08-22T21:58:35.025Z,22.80
2022-08-22T22:01:25.056Z,21.73
2022-08-22T22:03:55.921Z,22.03
2022-08-22T22:06:23.599Z,22.60
2022-08-22T22:08:51.429Z,22.23
2022-08-22T22:11:19.725Z,21.35
2022-08-22T22:13:47.607Z,22.00
2022-08-22T22:16:21.387Z,23.75
2022-08-22T22:18:49.522Z,22.70
2022-08-22T22:21:18.730Z,21.02
2022-08-22T22:23:46.819Z,20.80
2022-08-22T22:26:15.061Z,21.02
2022-08-22T22:28:50.067Z,24.12
2022-08-22T22:31:18.631Z,22.30
2022-08-22T22:33:46.671Z,21.90
2022-08-22T22:36:23.972Z,22.05
2022-08-22T22:38:53.796Z,22.35
2022-08-22T22:41:25.841Z,22.35
2022-08-22T22:43:55.164Z,22.87
2022-08-22T22:46:23.295Z,22.45
2022-08-22T22:48:51.159Z,23.02
2022-08-22T22:51:20.115Z,22.48
2022-08-22T22:53:47.889Z,23.27
2022-08-22T22:56:20.684Z,24.02
2022-08-22T22:59:01.025Z,22.83
2022-08-22T23:02:01.815Z,23.20
2022-08-22T23:04:31.416Z,23.58
2022-08-22T23:06:59.288Z,23.20
2022-08-22T23:09:28.280Z,23.77
2022-08-22T23:12:08.383Z,24.77
2022-08-22T23:14:36.431Z,23.65
2022-08-22T23:17:04.671Z,23.40
2022-08-22T23:19:33.324Z,23.75
2022-08-22T23:22:02.361Z,23.87
2022-08-22T23:24:34.077Z,23.42
2022-08-22T23:27:02.945Z,23.52
2022-08-22T23:29:30.753Z,24.90
2022-08-22T23:32:01.778Z,24.33
2022-08-22T23:34:36.365Z,24.95
2022-08-22T23:39:52.358Z,23.77
2022-08-22T23:42:20.226Z,22.58
2022-08-22T23:44:48.459Z,23.10
2022-08-22T23:47:16.753Z,103.62
2022-08-22T23:49:44.846Z,24.02
2022-08-22T23:52:13.681Z,24.45
2022-08-22T23:54:42.182Z,23.80
2022-08-22T23:57:12.073Z,25.08
2022-08-22T23:59:48.454Z,51.70
